Wind Gültig von: 25-04-2019 03:31 bis: 17:00 Warnung für: Wind Gefahrenstufe: Gelb info button
deutsch:
Es treten Windböen mit Geschwindigkeiten zwischen 50 km/h (14m/s, 28kn, Bft 7) und 60 km/h (17m/s, 33kn, Bft 7) aus südlicher Richtung auf. In exponierten Lagen muss mit Sturmböen um 65 km/h (18m/s, 35kn, Bft 8) gerechnet werden. 
Webcam Vorhersage DWD Regenradar Wetterlage NRW Blitze Wind GFS-Modell
webcam


Kleve - Düffelward SSO more information Kleve - Düffelward SSO


Goch more information Goch


Weitere Templates dieser Seite und andere Webseiten:

Meteotemplate

Awekas - Template

weather34 - Template

Wetter im Erzgebirge


te
World Weather Websites
Bo-Rox Wetter Topsites List
 

METAR-Meldungen aus der Umgebung

   
EDLV - Goch
Aktualisierung: 25-04-2019 17:50
Teilweise bewölkt  
Teilweise bewölkt  
   Wind: SW 11.1 km/h
Wind: SW 11.1 km/h
Temperatur: 15°C
Taupunkt: 10°C
Luftfeuchte: 72%
Luftdruck: 1007 hPa
Bewölkt: Teilweise bewölkt
Sichtbarkeit: More than 10 km
Bewölkung: Teilweise bewölkt 3400 ft
EDLV 251550Z 23006KT 9999 SCT034 15/10 Q1007
EDLV - Emmerich
Aktualisierung: 25-04-2019 17:50
Teilweise bewölkt  
Teilweise bewölkt  
   Wind: SW 11.1 km/h
Wind: SW 11.1 km/h
Temperatur: 15°C
Taupunkt: 10°C
Luftfeuchte: 72%
Luftdruck: 1007 hPa
Bewölkt: Teilweise bewölkt
Sichtbarkeit: More than 10 km
Bewölkung: Teilweise bewölkt 3400 ft
EDLV 251550Z 23006KT 9999 SCT034 15/10 Q1007
EHDL - Nijmegen
Aktualisierung: 25-04-2019 17:55
Nieselregen, Stark bewölkt  
Nieselregen, Stark bewölkt  
   Wind: SSW 24.1 km/h
Wind: SSW 24.1 km/h
Temperatur: 15°C
Taupunkt: 9°C
Luftfeuchte: 68%
Luftdruck: 1006 hPa
Bewölkt: Stark bewölkt
Sichtbarkeit: More than 10 km
Bewölkung: Teilweise bewölkt 7200 ft,
Teilweise bewölkt 8700 ft,
Stark bewölkt 9300 ft
EHDL 251555Z AUTO 20013KT 150V270 9999 DZ SCT072 SCT087 BKN093 15/09 Q1006 BLU
EHDL - Arnhem
Aktualisierung: 25-04-2019 17:55
Nieselregen, Stark bewölkt  
Nieselregen, Stark bewölkt  
   Wind: SSW 24.1 km/h
Wind: SSW 24.1 km/h
Temperatur: 15°C
Taupunkt: 9°C
Luftfeuchte: 68%
Luftdruck: 1006 hPa
Bewölkt: Stark bewölkt
Sichtbarkeit: More than 10 km
Bewölkung: Teilweise bewölkt 7200 ft,
Teilweise bewölkt 8700 ft,
Stark bewölkt 9300 ft
EHDL 251555Z AUTO 20013KT 150V270 9999 DZ SCT072 SCT087 BKN093 15/09 Q1006 BLU
EDLV - Kalkar
Aktualisierung: 25-04-2019 17:50
Teilweise bewölkt  
Teilweise bewölkt  
   Wind: SW 11.1 km/h
Wind: SW 11.1 km/h
Temperatur: 15°C
Taupunkt: 10°C
Luftfeuchte: 72%
Luftdruck: 1007 hPa
Bewölkt: Teilweise bewölkt
Sichtbarkeit: More than 10 km
Bewölkung: Teilweise bewölkt 3400 ft
EDLV 251550Z 23006KT 9999 SCT034 15/10 Q1007
 

Script entwickelt von  Saratoga-weather.org Angepasst für das Template von  Weerstation Leuven

Sie finden Wetter-Infos dieser Station auch auf:

UK Metoffice

European Weather Network

WeatherCloud

Weather Underground

Germany Weather Network

AWEKAS

Neuwetter

Wettersektor

Von uns verwendete Ausrüstung:

Wetterstation
Davis Vantage Pro2

Wetterprogramm
Meteobridge

WetterComputer
Computer

Davis Vantage Pro2

Meteobridge

Computer